sensor_id;sensor_type;location;lat;lon;timestamp;P1;durP1;ratioP1;P2;durP2;ratioP2
12968;SDS011;6549;53.128;8.182;2023-04-08T00:00:34;20.88;;;13.40;;
12968;SDS011;6549;53.128;8.182;2023-04-08T00:03:34;20.30;;;12.95;;
12968;SDS011;6549;53.128;8.182;2023-04-08T00:06:35;22.45;;;14.10;;
12968;SDS011;6549;53.128;8.182;2023-04-08T00:09:36;20.83;;;13.38;;
12968;SDS011;6549;53.128;8.182;2023-04-08T00:12:36;21.98;;;13.95;;
12968;SDS011;6549;53.128;8.182;2023-04-08T00:15:37;22.98;;;14.32;;
12968;SDS011;6549;53.128;8.182;2023-04-08T00:18:37;25.10;;;14.10;;
12968;SDS011;6549;53.128;8.182;2023-04-08T00:21:38;23.90;;;15.50;;
12968;SDS011;6549;53.128;8.182;2023-04-08T00:24:38;22.15;;;14.20;;
12968;SDS011;6549;53.128;8.182;2023-04-08T00:27:39;24.88;;;14.73;;
12968;SDS011;6549;53.128;8.182;2023-04-08T00:30:40;24.58;;;15.70;;
12968;SDS011;6549;53.128;8.182;2023-04-08T00:33:40;23.40;;;14.60;;
12968;SDS011;6549;53.128;8.182;2023-04-08T00:36:40;25.02;;;15.30;;
12968;SDS011;6549;53.128;8.182;2023-04-08T00:39:40;24.50;;;14.52;;
12968;SDS011;6549;53.128;8.182;2023-04-08T00:42:41;22.60;;;14.93;;
12968;SDS011;6549;53.128;8.182;2023-04-08T00:45:41;23.92;;;15.30;;
12968;SDS011;6549;53.128;8.182;2023-04-08T00:48:41;23.58;;;15.48;;
12968;SDS011;6549;53.128;8.182;2023-04-08T00:51:42;26.08;;;15.52;;
12968;SDS011;6549;53.128;8.182;2023-04-08T00:54:42;24.02;;;15.55;;
12968;SDS011;6549;53.128;8.182;2023-04-08T00:57:42;25.40;;;15.85;;
12968;SDS011;6549;53.128;8.182;2023-04-08T01:00:45;22.50;;;15.05;;
12968;SDS011;6549;53.128;8.182;2023-04-08T01:03:57;23.60;;;14.50;;
12968;SDS011;6549;53.128;8.182;2023-04-08T01:07:12;25.08;;;15.60;;
12968;SDS011;6549;53.128;8.182;2023-04-08T01:10:17;23.95;;;15.57;;
12968;SDS011;6549;53.128;8.182;2023-04-08T01:13:21;23.05;;;15.43;;
12968;SDS011;6549;53.128;8.182;2023-04-08T01:16:25;23.27;;;15.75;;
12968;SDS011;6549;53.128;8.182;2023-04-08T01:19:27;24.45;;;15.93;;
12968;SDS011;6549;53.128;8.182;2023-04-08T01:22:49;25.05;;;15.93;;
12968;SDS011;6549;53.128;8.182;2023-04-08T01:26:02;26.58;;;15.98;;
12968;SDS011;6549;53.128;8.182;2023-04-08T01:29:03;23.65;;;15.07;;
12968;SDS011;6549;53.128;8.182;2023-04-08T01:32:04;25.67;;;14.93;;
12968;SDS011;6549;53.128;8.182;2023-04-08T01:35:08;24.55;;;15.48;;
12968;SDS011;6549;53.128;8.182;2023-04-08T01:38:09;22.30;;;14.15;;
12968;SDS011;6549;53.128;8.182;2023-04-08T01:41:13;25.15;;;14.45;;
12968;SDS011;6549;53.128;8.182;2023-04-08T01:44:17;23.95;;;14.98;;
12968;SDS011;6549;53.128;8.182;2023-04-08T01:47:18;27.25;;;15.80;;
12968;SDS011;6549;53.128;8.182;2023-04-08T01:50:18;24.40;;;15.25;;
12968;SDS011;6549;53.128;8.182;2023-04-08T01:53:20;24.17;;;13.95;;
12968;SDS011;6549;53.128;8.182;2023-04-08T01:56:21;23.75;;;14.95;;
12968;SDS011;6549;53.128;8.182;2023-04-08T01:59:22;23.42;;;13.93;;
12968;SDS011;6549;53.128;8.182;2023-04-08T02:02:28;25.95;;;14.68;;
12968;SDS011;6549;53.128;8.182;2023-04-08T02:05:31;24.58;;;14.88;;
12968;SDS011;6549;53.128;8.182;2023-04-08T02:08:32;26.60;;;15.77;;
12968;SDS011;6549;53.128;8.182;2023-04-08T02:11:34;24.15;;;14.68;;
12968;SDS011;6549;53.128;8.182;2023-04-08T02:14:35;27.45;;;14.63;;
12968;SDS011;6549;53.128;8.182;2023-04-08T02:17:39;23.05;;;14.15;;
12968;SDS011;6549;53.128;8.182;2023-04-08T02:20:49;22.42;;;14.65;;
12968;SDS011;6549;53.128;8.182;2023-04-08T02:23:55;23.88;;;14.10;;
12968;SDS011;6549;53.128;8.182;2023-04-08T02:26:58;24.05;;;14.75;;
12968;SDS011;6549;53.128;8.182;2023-04-08T02:30:01;25.00;;;14.70;;
12968;SDS011;6549;53.128;8.182;2023-04-08T02:33:03;23.58;;;14.65;;
12968;SDS011;6549;53.128;8.182;2023-04-08T02:36:05;24.50;;;14.10;;
12968;SDS011;6549;53.128;8.182;2023-04-08T02:39:06;24.90;;;14.07;;
12968;SDS011;6549;53.128;8.182;2023-04-08T02:42:06;20.63;;;13.48;;
12968;SDS011;6549;53.128;8.182;2023-04-08T02:45:07;23.45;;;13.45;;
12968;SDS011;6549;53.128;8.182;2023-04-08T02:48:07;20.75;;;13.70;;
12968;SDS011;6549;53.128;8.182;2023-04-08T02:51:08;22.63;;;13.30;;
12968;SDS011;6549;53.128;8.182;2023-04-08T02:54:09;23.90;;;14.00;;
12968;SDS011;6549;53.128;8.182;2023-04-08T02:57:09;23.83;;;14.30;;
12968;SDS011;6549;53.128;8.182;2023-04-08T03:00:09;23.67;;;14.20;;
12968;SDS011;6549;53.128;8.182;2023-04-08T03:03:10;22.67;;;13.65;;
12968;SDS011;6549;53.128;8.182;2023-04-08T03:06:11;21.30;;;13.13;;
12968;SDS011;6549;53.128;8.182;2023-04-08T03:09:11;23.45;;;13.40;;
12968;SDS011;6549;53.128;8.182;2023-04-08T03:12:11;23.50;;;13.77;;
12968;SDS011;6549;53.128;8.182;2023-04-08T03:15:11;23.90;;;13.85;;
12968;SDS011;6549;53.128;8.182;2023-04-08T03:18:12;24.98;;;14.65;;
12968;SDS011;6549;53.128;8.182;2023-04-08T03:21:12;23.13;;;13.38;;
12968;SDS011;6549;53.128;8.182;2023-04-08T03:24:12;23.23;;;13.90;;
12968;SDS011;6549;53.128;8.182;2023-04-08T03:27:13;23.85;;;13.82;;
12968;SDS011;6549;53.128;8.182;2023-04-08T03:30:13;23.58;;;13.68;;
12968;SDS011;6549;53.128;8.182;2023-04-08T03:33:13;25.60;;;14.95;;
12968;SDS011;6549;53.128;8.182;2023-04-08T03:36:14;25.38;;;14.25;;
12968;SDS011;6549;53.128;8.182;2023-04-08T03:39:14;25.85;;;14.68;;
12968;SDS011;6549;53.128;8.182;2023-04-08T03:42:14;23.63;;;13.20;;
12968;SDS011;6549;53.128;8.182;2023-04-08T03:45:15;25.73;;;14.10;;
12968;SDS011;6549;53.128;8.182;2023-04-08T03:48:15;22.55;;;13.25;;
12968;SDS011;6549;53.128;8.182;2023-04-08T03:51:16;27.70;;;14.32;;
12968;SDS011;6549;53.128;8.182;2023-04-08T03:54:16;24.00;;;13.43;;
12968;SDS011;6549;53.128;8.182;2023-04-08T03:57:16;24.65;;;13.55;;
12968;SDS011;6549;53.128;8.182;2023-04-08T04:00:17;27.15;;;13.95;;
12968;SDS011;6549;53.128;8.182;2023-04-08T04:03:17;23.38;;;13.30;;
12968;SDS011;6549;53.128;8.182;2023-04-08T04:06:17;22.83;;;13.75;;
12968;SDS011;6549;53.128;8.182;2023-04-08T04:09:18;25.05;;;13.98;;
12968;SDS011;6549;53.128;8.182;2023-04-08T04:12:18;26.23;;;14.20;;
12968;SDS011;6549;53.128;8.182;2023-04-08T04:15:18;25.30;;;13.35;;
12968;SDS011;6549;53.128;8.182;2023-04-08T04:18:19;26.40;;;15.13;;
12968;SDS011;6549;53.128;8.182;2023-04-08T04:21:19;22.48;;;13.13;;
12968;SDS011;6549;53.128;8.182;2023-04-08T04:24:19;27.02;;;13.63;;
12968;SDS011;6549;53.128;8.182;2023-04-08T04:27:20;28.35;;;14.15;;
12968;SDS011;6549;53.128;8.182;2023-04-08T04:30:20;26.10;;;14.48;;
12968;SDS011;6549;53.128;8.182;2023-04-08T04:33:20;24.65;;;14.02;;
12968;SDS011;6549;53.128;8.182;2023-04-08T04:36:21;26.33;;;14.07;;
12968;SDS011;6549;53.128;8.182;2023-04-08T04:39:21;25.90;;;14.10;;
12968;SDS011;6549;53.128;8.182;2023-04-08T04:42:21;22.25;;;12.73;;
12968;SDS011;6549;53.128;8.182;2023-04-08T04:45:22;26.08;;;13.63;;
12968;SDS011;6549;53.128;8.182;2023-04-08T04:48:22;24.00;;;13.88;;
12968;SDS011;6549;53.128;8.182;2023-04-08T04:51:22;24.70;;;13.50;;
12968;SDS011;6549;53.128;8.182;2023-04-08T04:54:23;26.10;;;13.45;;
12968;SDS011;6549;53.128;8.182;2023-04-08T04:57:23;28.90;;;14.50;;
12968;SDS011;6549;53.128;8.182;2023-04-08T05:00:23;29.88;;;15.52;;
12968;SDS011;6549;53.128;8.182;2023-04-08T05:03:24;27.10;;;14.80;;
12968;SDS011;6549;53.128;8.182;2023-04-08T05:06:25;27.60;;;14.65;;
12968;SDS011;6549;53.128;8.182;2023-04-08T05:09:26;29.30;;;15.48;;
12968;SDS011;6549;53.128;8.182;2023-04-08T05:12:26;30.63;;;16.33;;
12968;SDS011;6549;53.128;8.182;2023-04-08T05:15:26;28.25;;;14.98;;
12968;SDS011;6549;53.128;8.182;2023-04-08T05:18:27;26.88;;;14.68;;
12968;SDS011;6549;53.128;8.182;2023-04-08T05:21:27;28.27;;;15.80;;
12968;SDS011;6549;53.128;8.182;2023-04-08T05:24:27;25.95;;;14.70;;
12968;SDS011;6549;53.128;8.182;2023-04-08T05:27:28;30.48;;;15.60;;
12968;SDS011;6549;53.128;8.182;2023-04-08T05:30:28;28.63;;;15.93;;
12968;SDS011;6549;53.128;8.182;2023-04-08T05:33:28;29.42;;;14.20;;
12968;SDS011;6549;53.128;8.182;2023-04-08T05:36:29;31.17;;;16.90;;
12968;SDS011;6549;53.128;8.182;2023-04-08T05:39:29;30.63;;;16.05;;
12968;SDS011;6549;53.128;8.182;2023-04-08T05:42:29;30.25;;;15.90;;
12968;SDS011;6549;53.128;8.182;2023-04-08T05:45:31;28.17;;;15.18;;
12968;SDS011;6549;53.128;8.182;2023-04-08T05:48:31;26.98;;;15.23;;
12968;SDS011;6549;53.128;8.182;2023-04-08T05:51:31;30.42;;;15.80;;
12968;SDS011;6549;53.128;8.182;2023-04-08T05:54:32;29.65;;;16.65;;
12968;SDS011;6549;53.128;8.182;2023-04-08T05:57:32;28.33;;;15.85;;
12968;SDS011;6549;53.128;8.182;2023-04-08T06:00:32;28.38;;;15.13;;
12968;SDS011;6549;53.128;8.182;2023-04-08T06:03:33;30.33;;;15.82;;
12968;SDS011;6549;53.128;8.182;2023-04-08T06:06:33;29.50;;;15.98;;
12968;SDS011;6549;53.128;8.182;2023-04-08T06:09:34;31.42;;;15.75;;
12968;SDS011;6549;53.128;8.182;2023-04-08T06:12:36;28.20;;;15.80;;
12968;SDS011;6549;53.128;8.182;2023-04-08T06:15:39;25.88;;;15.27;;
12968;SDS011;6549;53.128;8.182;2023-04-08T06:18:40;28.00;;;15.15;;
12968;SDS011;6549;53.128;8.182;2023-04-08T06:21:40;31.98;;;15.40;;
12968;SDS011;6549;53.128;8.182;2023-04-08T06:24:41;27.02;;;15.57;;
12968;SDS011;6549;53.128;8.182;2023-04-08T06:27:41;30.38;;;14.98;;
12968;SDS011;6549;53.128;8.182;2023-04-08T06:30:41;28.98;;;15.07;;
12968;SDS011;6549;53.128;8.182;2023-04-08T06:33:42;28.77;;;14.85;;
12968;SDS011;6549;53.128;8.182;2023-04-08T06:36:42;26.50;;;13.63;;
12968;SDS011;6549;53.128;8.182;2023-04-08T06:39:42;29.02;;;15.02;;
12968;SDS011;6549;53.128;8.182;2023-04-08T06:42:43;33.42;;;16.38;;
12968;SDS011;6549;53.128;8.182;2023-04-08T06:45:43;29.38;;;15.27;;
12968;SDS011;6549;53.128;8.182;2023-04-08T06:48:44;27.42;;;15.00;;
12968;SDS011;6549;53.128;8.182;2023-04-08T06:51:44;30.70;;;14.95;;
12968;SDS011;6549;53.128;8.182;2023-04-08T06:54:45;33.38;;;15.32;;
12968;SDS011;6549;53.128;8.182;2023-04-08T06:57:45;33.85;;;15.35;;
12968;SDS011;6549;53.128;8.182;2023-04-08T07:00:45;28.80;;;14.98;;
12968;SDS011;6549;53.128;8.182;2023-04-08T07:03:46;27.30;;;14.93;;
12968;SDS011;6549;53.128;8.182;2023-04-08T07:06:46;27.08;;;15.15;;
12968;SDS011;6549;53.128;8.182;2023-04-08T07:09:47;29.55;;;14.85;;
12968;SDS011;6549;53.128;8.182;2023-04-08T07:12:47;28.27;;;15.65;;
12968;SDS011;6549;53.128;8.182;2023-04-08T07:15:47;28.08;;;14.40;;
12968;SDS011;6549;53.128;8.182;2023-04-08T07:18:47;31.58;;;16.40;;
12968;SDS011;6549;53.128;8.182;2023-04-08T07:21:48;33.78;;;16.35;;
12968;SDS011;6549;53.128;8.182;2023-04-08T07:24:48;33.20;;;18.05;;
12968;SDS011;6549;53.128;8.182;2023-04-08T07:27:49;31.95;;;16.65;;
12968;SDS011;6549;53.128;8.182;2023-04-08T07:30:49;33.25;;;17.85;;
12968;SDS011;6549;53.128;8.182;2023-04-08T07:33:49;33.05;;;16.45;;
12968;SDS011;6549;53.128;8.182;2023-04-08T07:36:50;31.90;;;16.13;;
12968;SDS011;6549;53.128;8.182;2023-04-08T07:39:50;37.38;;;17.95;;
12968;SDS011;6549;53.128;8.182;2023-04-08T07:42:50;35.03;;;17.63;;
12968;SDS011;6549;53.128;8.182;2023-04-08T07:45:51;32.33;;;17.13;;
12968;SDS011;6549;53.128;8.182;2023-04-08T07:48:51;33.00;;;16.90;;
12968;SDS011;6549;53.128;8.182;2023-04-08T07:51:51;33.55;;;15.98;;
12968;SDS011;6549;53.128;8.182;2023-04-08T07:54:52;33.88;;;18.95;;
12968;SDS011;6549;53.128;8.182;2023-04-08T07:57:52;35.00;;;17.40;;
12968;SDS011;6549;53.128;8.182;2023-04-08T08:00:52;35.60;;;17.17;;
12968;SDS011;6549;53.128;8.182;2023-04-08T08:03:53;33.03;;;18.33;;
12968;SDS011;6549;53.128;8.182;2023-04-08T08:06:53;35.08;;;17.23;;
12968;SDS011;6549;53.128;8.182;2023-04-08T08:09:53;29.13;;;16.75;;
12968;SDS011;6549;53.128;8.182;2023-04-08T08:12:54;33.33;;;17.63;;
12968;SDS011;6549;53.128;8.182;2023-04-08T08:15:54;29.90;;;15.70;;
12968;SDS011;6549;53.128;8.182;2023-04-08T08:18:54;30.55;;;16.10;;
12968;SDS011;6549;53.128;8.182;2023-04-08T08:21:55;32.10;;;16.50;;
12968;SDS011;6549;53.128;8.182;2023-04-08T08:24:56;30.73;;;17.00;;
12968;SDS011;6549;53.128;8.182;2023-04-08T08:27:56;30.85;;;16.92;;
12968;SDS011;6549;53.128;8.182;2023-04-08T08:30:57;29.75;;;17.05;;
12968;SDS011;6549;53.128;8.182;2023-04-08T08:33:57;26.17;;;15.25;;
12968;SDS011;6549;53.128;8.182;2023-04-08T08:36:58;28.95;;;16.67;;
12968;SDS011;6549;53.128;8.182;2023-04-08T08:39:58;26.67;;;15.45;;
12968;SDS011;6549;53.128;8.182;2023-04-08T08:42:58;27.90;;;16.33;;
12968;SDS011;6549;53.128;8.182;2023-04-08T08:46:00;31.08;;;17.02;;
12968;SDS011;6549;53.128;8.182;2023-04-08T08:49:00;33.20;;;17.00;;
12968;SDS011;6549;53.128;8.182;2023-04-08T08:52:01;31.15;;;16.48;;
12968;SDS011;6549;53.128;8.182;2023-04-08T08:55:01;26.83;;;15.93;;
12968;SDS011;6549;53.128;8.182;2023-04-08T08:58:02;25.83;;;15.32;;
12968;SDS011;6549;53.128;8.182;2023-04-08T09:01:02;30.92;;;17.42;;
12968;SDS011;6549;53.128;8.182;2023-04-08T09:07:07;31.35;;;16.65;;
12968;SDS011;6549;53.128;8.182;2023-04-08T09:10:09;29.25;;;16.90;;
12968;SDS011;6549;53.128;8.182;2023-04-08T09:13:09;29.48;;;17.08;;
12968;SDS011;6549;53.128;8.182;2023-04-08T09:16:14;29.83;;;16.73;;
12968;SDS011;6549;53.128;8.182;2023-04-08T09:19:17;29.27;;;16.13;;
12968;SDS011;6549;53.128;8.182;2023-04-08T09:22:18;26.85;;;16.00;;
12968;SDS011;6549;53.128;8.182;2023-04-08T09:25:24;28.95;;;16.52;;
12968;SDS011;6549;53.128;8.182;2023-04-08T09:28:29;33.05;;;17.20;;
12968;SDS011;6549;53.128;8.182;2023-04-08T09:31:30;27.20;;;16.15;;
12968;SDS011;6549;53.128;8.182;2023-04-08T09:34:32;27.48;;;16.20;;
12968;SDS011;6549;53.128;8.182;2023-04-08T09:37:33;31.58;;;17.23;;
12968;SDS011;6549;53.128;8.182;2023-04-08T09:40:33;32.45;;;17.13;;
12968;SDS011;6549;53.128;8.182;2023-04-08T09:43:40;27.15;;;16.10;;
12968;SDS011;6549;53.128;8.182;2023-04-08T09:49:49;31.00;;;17.70;;
12968;SDS011;6549;53.128;8.182;2023-04-08T09:52:56;31.80;;;18.08;;
12968;SDS011;6549;53.128;8.182;2023-04-08T09:56:12;34.25;;;19.50;;
12968;SDS011;6549;53.128;8.182;2023-04-08T09:59:13;28.33;;;18.27;;
12968;SDS011;6549;53.128;8.182;2023-04-08T10:02:18;30.13;;;16.88;;
12968;SDS011;6549;53.128;8.182;2023-04-08T10:05:34;28.02;;;18.15;;
12968;SDS011;6549;53.128;8.182;2023-04-08T10:08:36;31.52;;;18.27;;
12968;SDS011;6549;53.128;8.182;2023-04-08T10:11:37;30.70;;;17.25;;
12968;SDS011;6549;53.128;8.182;2023-04-08T10:14:38;30.75;;;17.15;;
12968;SDS011;6549;53.128;8.182;2023-04-08T10:17:38;32.20;;;16.90;;
12968;SDS011;6549;53.128;8.182;2023-04-08T10:23:52;28.33;;;17.10;;
12968;SDS011;6549;53.128;8.182;2023-04-08T10:26:58;23.05;;;15.77;;
12968;SDS011;6549;53.128;8.182;2023-04-08T10:29:58;27.88;;;16.10;;
12968;SDS011;6549;53.128;8.182;2023-04-08T10:32:58;26.58;;;16.77;;
12968;SDS011;6549;53.128;8.182;2023-04-08T10:36:06;26.38;;;17.80;;
12968;SDS011;6549;53.128;8.182;2023-04-08T10:39:11;27.08;;;17.50;;
12968;SDS011;6549;53.128;8.182;2023-04-08T10:42:13;26.35;;;16.75;;
12968;SDS011;6549;53.128;8.182;2023-04-08T10:45:16;26.98;;;16.98;;
12968;SDS011;6549;53.128;8.182;2023-04-08T10:51:21;28.30;;;16.85;;
12968;SDS011;6549;53.128;8.182;2023-04-08T10:54:22;27.08;;;17.80;;
12968;SDS011;6549;53.128;8.182;2023-04-08T10:57:23;26.75;;;17.02;;
12968;SDS011;6549;53.128;8.182;2023-04-08T11:00:35;27.60;;;17.65;;
12968;SDS011;6549;53.128;8.182;2023-04-08T11:03:36;27.23;;;17.58;;
12968;SDS011;6549;53.128;8.182;2023-04-08T11:06:36;26.42;;;17.10;;
12968;SDS011;6549;53.128;8.182;2023-04-08T11:09:37;27.75;;;17.17;;
12968;SDS011;6549;53.128;8.182;2023-04-08T11:12:40;28.13;;;17.88;;
12968;SDS011;6549;53.128;8.182;2023-04-08T11:15:40;26.13;;;16.77;;
12968;SDS011;6549;53.128;8.182;2023-04-08T11:18:41;28.90;;;18.15;;
12968;SDS011;6549;53.128;8.182;2023-04-08T11:21:42;27.52;;;18.05;;
12968;SDS011;6549;53.128;8.182;2023-04-08T11:24:42;26.75;;;17.23;;
12968;SDS011;6549;53.128;8.182;2023-04-08T11:27:44;28.05;;;18.42;;
12968;SDS011;6549;53.128;8.182;2023-04-08T11:30:44;29.55;;;18.33;;
12968;SDS011;6549;53.128;8.182;2023-04-08T11:33:47;26.38;;;15.82;;
12968;SDS011;6549;53.128;8.182;2023-04-08T11:36:49;25.10;;;16.40;;
12968;SDS011;6549;53.128;8.182;2023-04-08T11:39:50;28.33;;;17.00;;
12968;SDS011;6549;53.128;8.182;2023-04-08T11:42:51;27.67;;;17.02;;
12968;SDS011;6549;53.128;8.182;2023-04-08T11:45:52;25.38;;;16.38;;
12968;SDS011;6549;53.128;8.182;2023-04-08T11:48:57;26.67;;;17.15;;
12968;SDS011;6549;53.128;8.182;2023-04-08T11:52:00;26.98;;;16.88;;
12968;SDS011;6549;53.128;8.182;2023-04-08T11:55:00;25.30;;;16.50;;
12968;SDS011;6549;53.128;8.182;2023-04-08T11:58:01;25.55;;;16.90;;
12968;SDS011;6549;53.128;8.182;2023-04-08T12:01:03;26.92;;;17.70;;
12968;SDS011;6549;53.128;8.182;2023-04-08T12:04:03;25.15;;;16.58;;
12968;SDS011;6549;53.128;8.182;2023-04-08T12:07:05;23.48;;;16.05;;
12968;SDS011;6549;53.128;8.182;2023-04-08T12:10:06;25.67;;;16.75;;
12968;SDS011;6549;53.128;8.182;2023-04-08T12:13:08;27.55;;;16.90;;
12968;SDS011;6549;53.128;8.182;2023-04-08T12:16:09;25.30;;;17.40;;
12968;SDS011;6549;53.128;8.182;2023-04-08T12:19:09;30.55;;;17.20;;
12968;SDS011;6549;53.128;8.182;2023-04-08T12:22:10;26.45;;;16.60;;
12968;SDS011;6549;53.128;8.182;2023-04-08T12:25:11;27.08;;;17.65;;
12968;SDS011;6549;53.128;8.182;2023-04-08T12:28:11;24.85;;;17.27;;
12968;SDS011;6549;53.128;8.182;2023-04-08T12:31:12;24.73;;;16.13;;
12968;SDS011;6549;53.128;8.182;2023-04-08T12:34:12;29.23;;;17.92;;
12968;SDS011;6549;53.128;8.182;2023-04-08T12:37:12;28.23;;;17.45;;
12968;SDS011;6549;53.128;8.182;2023-04-08T12:40:13;26.90;;;17.73;;
12968;SDS011;6549;53.128;8.182;2023-04-08T12:43:14;25.38;;;17.77;;
12968;SDS011;6549;53.128;8.182;2023-04-08T12:46:14;24.10;;;16.42;;
12968;SDS011;6549;53.128;8.182;2023-04-08T12:49:15;26.35;;;17.08;;
12968;SDS011;6549;53.128;8.182;2023-04-08T12:52:15;22.92;;;16.27;;
12968;SDS011;6549;53.128;8.182;2023-04-08T12:55:16;23.52;;;16.40;;
12968;SDS011;6549;53.128;8.182;2023-04-08T12:58:17;24.52;;;17.15;;
12968;SDS011;6549;53.128;8.182;2023-04-08T13:01:19;25.60;;;16.93;;
12968;SDS011;6549;53.128;8.182;2023-04-08T13:04:19;25.88;;;17.30;;
12968;SDS011;6549;53.128;8.182;2023-04-08T13:07:20;25.33;;;17.70;;
12968;SDS011;6549;53.128;8.182;2023-04-08T13:10:21;23.10;;;16.98;;
12968;SDS011;6549;53.128;8.182;2023-04-08T13:13:21;24.63;;;18.05;;
12968;SDS011;6549;53.128;8.182;2023-04-08T13:16:21;25.20;;;17.92;;
12968;SDS011;6549;53.128;8.182;2023-04-08T13:19:22;25.65;;;17.33;;
12968;SDS011;6549;53.128;8.182;2023-04-08T13:22:22;28.92;;;18.67;;
12968;SDS011;6549;53.128;8.182;2023-04-08T13:25:22;28.00;;;16.65;;
12968;SDS011;6549;53.128;8.182;2023-04-08T13:28:22;25.35;;;16.42;;
12968;SDS011;6549;53.128;8.182;2023-04-08T13:31:23;28.08;;;17.35;;
12968;SDS011;6549;53.128;8.182;2023-04-08T13:34:23;25.38;;;17.25;;
12968;SDS011;6549;53.128;8.182;2023-04-08T13:37:24;23.58;;;16.55;;
12968;SDS011;6549;53.128;8.182;2023-04-08T13:40:24;30.85;;;16.83;;
12968;SDS011;6549;53.128;8.182;2023-04-08T13:43:26;25.77;;;17.27;;
12968;SDS011;6549;53.128;8.182;2023-04-08T13:46:26;26.58;;;18.00;;
12968;SDS011;6549;53.128;8.182;2023-04-08T13:49:26;27.73;;;17.10;;
12968;SDS011;6549;53.128;8.182;2023-04-08T13:52:27;27.77;;;16.27;;
12968;SDS011;6549;53.128;8.182;2023-04-08T13:55:27;26.20;;;17.08;;
12968;SDS011;6549;53.128;8.182;2023-04-08T13:58:28;25.42;;;16.70;;
12968;SDS011;6549;53.128;8.182;2023-04-08T14:01:28;27.90;;;16.98;;
12968;SDS011;6549;53.128;8.182;2023-04-08T14:04:28;23.65;;;16.27;;
12968;SDS011;6549;53.128;8.182;2023-04-08T14:07:29;26.88;;;17.58;;
12968;SDS011;6549;53.128;8.182;2023-04-08T14:10:29;26.52;;;16.92;;
12968;SDS011;6549;53.128;8.182;2023-04-08T14:13:30;27.65;;;16.88;;
12968;SDS011;6549;53.128;8.182;2023-04-08T14:16:31;26.17;;;17.27;;
12968;SDS011;6549;53.128;8.182;2023-04-08T14:19:31;25.52;;;17.67;;
12968;SDS011;6549;53.128;8.182;2023-04-08T14:22:32;25.75;;;17.13;;
12968;SDS011;6549;53.128;8.182;2023-04-08T14:25:32;27.98;;;17.38;;
12968;SDS011;6549;53.128;8.182;2023-04-08T14:28:32;22.52;;;16.00;;
12968;SDS011;6549;53.128;8.182;2023-04-08T14:31:33;26.33;;;17.08;;
12968;SDS011;6549;53.128;8.182;2023-04-08T14:34:34;26.10;;;17.15;;
12968;SDS011;6549;53.128;8.182;2023-04-08T14:37:34;27.70;;;16.67;;
12968;SDS011;6549;53.128;8.182;2023-04-08T14:40:37;28.67;;;17.52;;
12968;SDS011;6549;53.128;8.182;2023-04-08T14:43:37;24.80;;;16.27;;
12968;SDS011;6549;53.128;8.182;2023-04-08T14:46:37;28.00;;;17.77;;
12968;SDS011;6549;53.128;8.182;2023-04-08T14:49:38;28.55;;;16.95;;
12968;SDS011;6549;53.128;8.182;2023-04-08T14:52:38;28.60;;;17.55;;
12968;SDS011;6549;53.128;8.182;2023-04-08T14:55:39;29.05;;;17.10;;
12968;SDS011;6549;53.128;8.182;2023-04-08T14:58:39;28.65;;;17.50;;
12968;SDS011;6549;53.128;8.182;2023-04-08T15:01:40;25.75;;;17.10;;
12968;SDS011;6549;53.128;8.182;2023-04-08T15:04:40;27.65;;;17.98;;
12968;SDS011;6549;53.128;8.182;2023-04-08T15:07:40;28.55;;;17.88;;
12968;SDS011;6549;53.128;8.182;2023-04-08T15:10:41;27.90;;;16.95;;
12968;SDS011;6549;53.128;8.182;2023-04-08T15:13:42;28.00;;;17.73;;
12968;SDS011;6549;53.128;8.182;2023-04-08T15:16:42;28.55;;;16.23;;
12968;SDS011;6549;53.128;8.182;2023-04-08T15:19:42;26.75;;;16.67;;
12968;SDS011;6549;53.128;8.182;2023-04-08T15:22:43;31.25;;;18.40;;
12968;SDS011;6549;53.128;8.182;2023-04-08T15:25:43;28.30;;;17.05;;
12968;SDS011;6549;53.128;8.182;2023-04-08T15:28:44;26.83;;;17.65;;
12968;SDS011;6549;53.128;8.182;2023-04-08T15:31:44;24.88;;;16.52;;
12968;SDS011;6549;53.128;8.182;2023-04-08T15:34:44;29.27;;;17.63;;
12968;SDS011;6549;53.128;8.182;2023-04-08T15:37:45;28.15;;;18.42;;
12968;SDS011;6549;53.128;8.182;2023-04-08T15:40:45;27.75;;;17.23;;
12968;SDS011;6549;53.128;8.182;2023-04-08T15:43:45;31.15;;;17.05;;
12968;SDS011;6549;53.128;8.182;2023-04-08T15:46:46;30.02;;;18.02;;
12968;SDS011;6549;53.128;8.182;2023-04-08T15:49:46;28.23;;;17.52;;
12968;SDS011;6549;53.128;8.182;2023-04-08T15:52:47;31.20;;;18.27;;
12968;SDS011;6549;53.128;8.182;2023-04-08T15:55:48;32.83;;;19.00;;
12968;SDS011;6549;53.128;8.182;2023-04-08T15:58:49;30.38;;;19.10;;
12968;SDS011;6549;53.128;8.182;2023-04-08T16:01:49;29.83;;;19.65;;
12968;SDS011;6549;53.128;8.182;2023-04-08T16:04:49;28.80;;;18.02;;
12968;SDS011;6549;53.128;8.182;2023-04-08T16:07:50;29.92;;;19.20;;
12968;SDS011;6549;53.128;8.182;2023-04-08T16:10:50;28.38;;;19.67;;
12968;SDS011;6549;53.128;8.182;2023-04-08T16:13:51;28.48;;;18.23;;
12968;SDS011;6549;53.128;8.182;2023-04-08T16:16:51;31.67;;;20.10;;
12968;SDS011;6549;53.128;8.182;2023-04-08T16:19:51;30.05;;;19.30;;
12968;SDS011;6549;53.128;8.182;2023-04-08T16:22:52;29.80;;;19.92;;
12968;SDS011;6549;53.128;8.182;2023-04-08T16:25:52;32.42;;;19.52;;
12968;SDS011;6549;53.128;8.182;2023-04-08T16:28:53;27.95;;;18.67;;
12968;SDS011;6549;53.128;8.182;2023-04-08T16:31:53;28.58;;;18.73;;
12968;SDS011;6549;53.128;8.182;2023-04-08T16:34:53;29.33;;;19.90;;
12968;SDS011;6549;53.128;8.182;2023-04-08T16:37:54;31.20;;;20.23;;
12968;SDS011;6549;53.128;8.182;2023-04-08T16:40:57;31.88;;;20.13;;
12968;SDS011;6549;53.128;8.182;2023-04-08T16:43:58;30.02;;;19.92;;
12968;SDS011;6549;53.128;8.182;2023-04-08T16:46:58;30.85;;;21.00;;
12968;SDS011;6549;53.128;8.182;2023-04-08T16:49:58;32.25;;;21.05;;
12968;SDS011;6549;53.128;8.182;2023-04-08T16:52:59;35.55;;;20.13;;
12968;SDS011;6549;53.128;8.182;2023-04-08T16:55:59;30.95;;;20.33;;
12968;SDS011;6549;53.128;8.182;2023-04-08T16:59:00;30.40;;;19.92;;
12968;SDS011;6549;53.128;8.182;2023-04-08T17:02:00;29.60;;;20.23;;
12968;SDS011;6549;53.128;8.182;2023-04-08T17:05:01;27.95;;;19.55;;
12968;SDS011;6549;53.128;8.182;2023-04-08T17:08:01;31.88;;;20.08;;
12968;SDS011;6549;53.128;8.182;2023-04-08T17:11:08;30.38;;;19.67;;
12968;SDS011;6549;53.128;8.182;2023-04-08T17:14:10;31.40;;;19.77;;
12968;SDS011;6549;53.128;8.182;2023-04-08T17:17:11;26.95;;;18.50;;
12968;SDS011;6549;53.128;8.182;2023-04-08T17:20:11;26.33;;;18.88;;
12968;SDS011;6549;53.128;8.182;2023-04-08T17:23:11;28.40;;;19.05;;
12968;SDS011;6549;53.128;8.182;2023-04-08T17:26:12;28.48;;;18.70;;
12968;SDS011;6549;53.128;8.182;2023-04-08T17:29:13;29.80;;;18.75;;
12968;SDS011;6549;53.128;8.182;2023-04-08T17:32:13;30.17;;;19.67;;
12968;SDS011;6549;53.128;8.182;2023-04-08T17:35:14;28.90;;;19.05;;
12968;SDS011;6549;53.128;8.182;2023-04-08T17:38:14;31.83;;;20.10;;
12968;SDS011;6549;53.128;8.182;2023-04-08T17:41:15;28.85;;;19.40;;
12968;SDS011;6549;53.128;8.182;2023-04-08T17:44:15;29.65;;;19.55;;
12968;SDS011;6549;53.128;8.182;2023-04-08T17:47:16;29.38;;;20.77;;
12968;SDS011;6549;53.128;8.182;2023-04-08T17:50:16;29.30;;;20.50;;
12968;SDS011;6549;53.128;8.182;2023-04-08T17:53:17;32.28;;;20.75;;
12968;SDS011;6549;53.128;8.182;2023-04-08T17:56:17;30.20;;;19.40;;
12968;SDS011;6549;53.128;8.182;2023-04-08T17:59:17;29.65;;;19.52;;
12968;SDS011;6549;53.128;8.182;2023-04-08T18:02:17;31.98;;;20.65;;
12968;SDS011;6549;53.128;8.182;2023-04-08T18:05:18;29.85;;;21.42;;